Impacts TAF Board INFO
FOR SITUATIONAL AWARENESS. NOT TO BE USED FOR FLIGHT PLANNING PURPOSES.
IDs:

KDCA - Washington/National, VA, US

Issued at 0539 UTC 14 Dec 2017
Updated at 0624 UTC 14 Dec 2017
Potential Impact None Slight Moderate High
Time0552Z 14/07Z 14/08Z 14/09Z 14/10Z 14/11Z 14/12Z 14/13Z 14/14Z 14/15Z 14/16Z 14/17Z 14/18Z 14/19Z>>
Type OBS PRVL PRVL PRVL PRVL PRVL PRVL PRVL PRVL PRVL PRVL PRVL PRVL PRVL
VIS 10 >6 >6 >6 >6 >6 >6 >6 >6 >6 >6 >6 >6 >6
CIG 100 50 50 50 50 50 50 50 50 50 50 -- -- --
Cover OVC BKN BKN BKN BKN BKN BKN BKN BKN BKN BKN SCT SCT SCT
FltCat VFR VFR VFR VFR VFR VFR VFR VFR VFR VFR VFR VFR VFR VFR
WX -- -- -- -- -- -- -- -- -- -- -- -- -- --
WDir 200 180 180 180 180 180 240 240 240 290 290 320 320 320
WSpd 10 10 10 10 10 10 10 10 10 12 12 12 12 12
WGst -- -- -- -- -- -- -- -- -- 22 22 22 22 22

Raw TAF
KDCA 140539Z 1406/1512 18010KT P6SM BKN050
  FM141200 24010KT P6SM BKN050
  FM141500 29012G22KT P6SM BKN050
  FM141700 32012G22KT P6SM SCT050 SCT200
  FM142200 33010KT P6SM BKN200
  FM150100 35005KT P6SM BKN150


Raw METAR
KDCA 140552Z 20010KT 10SM OVC100 03/M09 A2957 RMK AO2 SLP011 60000 T00281094 10028 20011 56034
KDCA 140452Z 19014KT 10SM OVC090 02/M09 A2960 RMK AO2 SLP021 T00221089 400221050
KDCA 140352Z 18013KT 10SM SCT070 BKN080 OVC100 02/M09 A2963 RMK AO2 SLP033 T00221094

METAR Board
Radar Display
Forecast Discussion

FOR SITUATIONAL AWARENESS. NOT TO BE USED FOR FLIGHT PLANNING PURPOSES.